Aeroporto :
LOGIN :

Iscrizione | Disclaimer

   EN    FR    IT 

 










Sommario :    VFR   VFR Marginale   IFR   IFR Intensivo   IFR Molto Intensivo
Visibilità : 
Base nubi : 
>= 8 km
>= 3000ft
5 / 8 km
1000 / 3000 ft
1500m / 5 km
500 / 1000 ft
800 / 1500m
200 / 500 ft
< 800m
< 200 ft
Simboli :   Temporali  Nebbia  Neve Forte  Precipitazioni Forti  Vento > 20 kt
SIGMETs :   Varie  Temporali  Ghiacco  Turbolenza  Onda orograficha  Ceneri Vulcaniche







- Altitudine del aeroporto : 1910 ft
- Codice IATA : RDZ
- Carte del aeroporto


LFCR - Rodez

ULTIMO METAR :
  • 261000Z AUTO 31013KT CAVOK 07/M04 Q1026 TEMPO 01015G25KT

METARs OBSOLETI :
  • 260930Z AUTO 32011KT 290V350 CAVOK 06/M01 Q1026 TEMPO 01015G25KT
  • 260900Z AUTO 32011KT 290V010 CAVOK 06/M02 Q1026 NOSIG
  • 260830Z AUTO 01013KT 330V050 CAVOK 06/M03 Q1026 NOSIG
  • 260800Z AUTO 35008KT 300V010 9999 FEW033 04/M03 Q1026 NOSIG
  • 260730Z AUTO 35009KT 320V020 9999 FEW033 04/M03 Q1025 NOSIG

TAF TAF LFCR
Valido dal 26 a 06 ore il 27 a 06 ore UTC


260500Z 2606/2706 36012KT 9999 FEW035
BECMG 2609/2611 CAVOK
TEMPO 2611/2620 01015G25KT
BECMG 2700/2702 VRB03KT
Nessun NOTAM noto per questo aeroporto.
1 SIGMET conosciuto per la FIR Bordeaux (LFBB) :
 
Turbolenza severa
LFBB SIGMET 2 VALID 260800/261200 LFPW
LFBB BORDEAUX FIR/UIR SEV TURB FCST WI N4530 E00300 - N4215 E00230 - N4215 E00200 - N4545 E00230 - N4530 E00300 SFC/FL070 STNR NC=



MetMap, La meteo Aeronautica in un colpo d'occhio ! - Copyright ORBIFLY Dicembre 2007 - Disclaimer

ORBIFLY MET'MAP TEAM :

Programmazione e sviluppo : Alexandra Zaïnal
Concezione e sviluppo : Baudouin d'Aumeries
Co-Programmazione e sviluppo : Marc-Olivier Méhu
Supporto tecnico e logistico : Manuel Goepfert
Aiuto per la traduzione : Arnaldo La Scala

Contatto : metmap@orbifly.com




FONTI E CREDITI :

   NOAA